YRBH weather

Royal Brisbane Hospital Helipad Charlie
Brisbane, Queensland, Australia

Public forecast

Using degrees Celsius for public forecast. Weather courtesy of forecast.io.

METAR (pilot weather report)

Closest report is Brisbane International Airport, 6.2 nm (11.5 km) NE. Retrieved 2019/04/20 11:30 UTC (21 minutes ago):

YBBN 201130Z 34002KT 9999 FEW020 BKN060 21/20 Q1021 INTER 1130/1430 3000 SHRA BKN012

TAF (pilot weather forecast)

Closest forecast is Brisbane International Airport, 6.2 nm (11.5 km) NE. Retrieved 2019/04/20 06:00 UTC (6 hours ago):

TAF YBBN 200501Z 2006/2112 13014KT 9999 -SHRA SCT020 BKN040 FM201200 16010KT 9999 -SHRA SCT015 BKN025 BKN040 FM202300 13014KT 9999 SCT025 SCT040 INTER 2006/2018 3000 SHRA BKN012